< < Back
Terminal Aerodrome Forecast


Current Version              Previous Versions:   1  2  3  4  5  6  7  8  9  

Terminal Aerodrome Forecast

484
FTUS44 KMOB 271732
TAFMOB
TAF
KMOB 271732Z 2718/2818 22012KT P6SM BKN025
      TEMPO 2719/2722 3SM TSRA BKN025CB
     FM272300 20004KT P6SM FEW025 SCT050=



Latest METAR

413
SAUS80 KWBC 272214
MTRMOB
METAR KMOB 272156Z COR 18007KT 10SM SCT036 BKN045CB BKN070 29/25 A3003
RMK AO2 RAB30E43 SLP165 CB ALQDS MOV NE P0001 T02940250


USA.gov is the U.S. government's official web portal to all federal, state and local government web resources and services.